Time;durP1;ratioP1;P1;durP2;ratioP2;P2;SDS_P1;SDS_P2;PMS_P1;PMS_P2;Temp;Humidity;BMP_temperature;BMP_pressure;BME280_temperature;BME280_humidity;BME280_pressure;Samples;Min_cycle;Max_cycle;Signal;HPM_P1;HPM_P2
2021/12/27 00:00:19;;;;;;;20.00;10.73;;;9.30;48.90;;;;;;5073061;28;20029;-81
2021/12/27 00:02:47;;;;;;;18.58;11.43;;;8.80;49.30;;;;;;5071280;28;20032;-80
2021/12/27 00:05:13;;;;;;;19.67;10.48;;;8.60;49.70;;;;;;5093019;28;20167;-80
2021/12/27 00:07:39;;;;;;;19.92;11.43;;;8.60;49.50;;;;;;5081871;28;20030;-81
2021/12/27 00:10:06;;;;;;;16.48;9.70;;;8.40;49.60;;;;;;5071409;28;20472;-82
2021/12/27 00:12:32;;;;;;;20.13;10.93;;;8.20;49.30;;;;;;5071464;28;20029;-82
2021/12/27 00:14:58;;;;;;;19.83;10.98;;;8.20;49.70;;;;;;5071714;28;20028;-81
2021/12/27 00:17:23;;;;;;;18.17;10.05;;;8.40;49.50;;;;;;5072766;28;20039;-82
2021/12/27 00:19:49;;;;;;;18.52;10.55;;;8.30;49.60;;;;;;5085531;28;20024;-81
2021/12/27 00:22:15;;;;;;;20.25;11.23;;;8.30;49.20;;;;;;5096963;28;20036;-82
2021/12/27 00:24:46;;;;;;;16.63;9.68;;;8.50;49.10;;;;;;5097036;28;20467;-82
2021/12/27 00:27:13;;;;;;;17.42;10.25;;;8.30;48.40;;;;;;5097273;28;20188;-80
2021/12/27 00:29:38;;;;;;;18.50;10.63;;;7.80;49.50;;;;;;5095985;28;20024;-81
2021/12/27 00:32:04;;;;;;;19.65;10.35;;;7.40;50.60;;;;;;5095490;28;20085;-80
2021/12/27 00:34:30;;;;;;;18.65;10.40;;;7.10;50.90;;;;;;5095484;28;20495;-80
2021/12/27 00:36:56;;;;;;;16.83;9.95;;;7.50;50.40;;;;;;5096315;28;20058;-80
2021/12/27 00:39:21;;;;;;;18.80;9.90;;;7.70;49.80;;;;;;5095266;28;20165;-81
2021/12/27 00:41:47;;;;;;;17.85;10.40;;;7.80;49.70;;;;;;5095310;28;20056;-80
2021/12/27 00:44:13;;;;;;;17.38;10.07;;;8.00;50.60;;;;;;5095346;28;20066;-81
2021/12/27 00:46:38;;;;;;;18.42;10.02;;;8.20;49.90;;;;;;5096778;28;20526;-81
2021/12/27 00:49:04;;;;;;;16.95;9.90;;;8.30;50.00;;;;;;5096643;28;20020;-80
2021/12/27 00:51:30;;;;;;;17.25;9.82;;;8.40;50.00;;;;;;5082550;28;20051;-81
2021/12/27 00:53:55;;;;;;;17.65;9.95;;;8.20;50.70;;;;;;5074797;28;20073;-80
2021/12/27 00:56:21;;;;;;;18.92;10.38;;;7.80;49.80;;;;;;5074776;28;20051;-81
2021/12/27 00:58:47;;;;;;;19.17;10.40;;;7.80;50.20;;;;;;5074889;28;20024;-80
2021/12/27 01:01:12;;;;;;;18.77;10.38;;;7.60;50.20;;;;;;5075055;28;20118;-81
2021/12/27 01:03:38;;;;;;;17.60;9.95;;;7.60;50.40;;;;;;5075040;28;20078;-81
2021/12/27 01:06:04;;;;;;;17.05;9.90;;;7.20;50.70;;;;;;5075008;28;20024;-81
2021/12/27 01:08:29;;;;;;;16.33;9.75;;;7.00;51.00;;;;;;5074559;28;20456;-81
2021/12/27 01:13:43;;;;;;;16.60;9.82;;;6.70;51.00;;;;;;5076513;28;20052;-80
2021/12/27 01:16:11;;;;;;;18.48;10.63;;;6.00;53.50;;;;;;5075347;28;20025;-81
2021/12/27 01:18:48;;;;;;;17.67;10.02;;;5.40;55.60;;;;;;5074789;28;20028;-81
2021/12/27 01:21:17;;;;;;;19.95;10.15;;;5.50;55.90;;;;;;5076210;28;20025;-80
2021/12/27 01:23:43;;;;;;;19.17;11.50;;;6.10;54.80;;;;;;5075574;28;20452;-81
2021/12/27 01:26:09;;;;;;;18.80;10.70;;;6.70;53.30;;;;;;5074486;28;20105;-81
2021/12/27 01:28:35;;;;;;;17.00;9.95;;;7.20;52.00;;;;;;5074116;28;20055;-81
2021/12/27 01:31:01;;;;;;;18.48;9.77;;;7.60;51.20;;;;;;5073924;28;20466;-81
2021/12/27 01:33:27;;;;;;;17.77;10.52;;;7.80;50.20;;;;;;5075410;28;20583;-81
2021/12/27 01:35:55;;;;;;;18.40;10.70;;;7.60;50.20;;;;;;5074180;28;20051;-80
2021/12/27 01:38:21;;;;;;;16.98;10.25;;;7.20;50.70;;;;;;5074446;28;20361;-82
2021/12/27 01:40:50;;;;;;;17.48;10.05;;;7.30;51.70;;;;;;5073902;28;20024;-81
2021/12/27 01:43:28;;;;;;;18.70;10.10;;;7.60;50.80;;;;;;5074056;28;20052;-81
2021/12/27 01:46:00;;;;;;;21.38;11.73;;;7.90;50.10;;;;;;5075085;28;20095;-81
2021/12/27 01:48:33;;;;;;;18.88;11.13;;;7.90;50.00;;;;;;5073969;28;20052;-82
2021/12/27 01:51:01;;;;;;;20.15;10.52;;;8.00;50.10;;;;;;5074996;28;20055;-81
2021/12/27 01:53:30;;;;;;;19.35;9.98;;;7.60;48.70;;;;;;5074841;28;20082;-80
2021/12/27 01:55:56;;;;;;;20.02;10.07;;;6.90;50.80;;;;;;5081653;28;20529;-81
2021/12/27 01:58:23;;;;;;;18.77;9.82;;;7.20;50.70;;;;;;5094247;28;20040;-81
2021/12/27 02:00:52;;;;;;;17.88;11.00;;;7.40;50.50;;;;;;5093888;28;20364;-82
2021/12/27 02:03:20;;;;;;;21.20;11.70;;;7.10;51.00;;;;;;5075354;28;20032;-80
2021/12/27 02:05:46;;;;;;;22.27;11.48;;;7.00;51.20;;;;;;5073653;28;20053;-82
2021/12/27 02:08:12;;;;;;;17.83;11.00;;;7.20;51.30;;;;;;5073196;28;20036;-81
2021/12/27 02:10:39;;;;;;;22.35;12.13;;;7.30;51.00;;;;;;5072620;28;20099;-81
2021/12/27 02:13:05;;;;;;;22.25;11.73;;;7.10;51.30;;;;;;5072074;28;20048;-82
2021/12/27 02:15:31;;;;;;;23.73;12.32;;;7.30;51.10;;;;;;5084617;28;20398;-82
2021/12/27 02:17:57;;;;;;;21.63;11.20;;;7.40;50.70;;;;;;5093474;28;20067;-84
2021/12/27 02:20:26;;;;;;;19.80;11.10;;;7.40;50.70;;;;;;5078045;28;20479;-81
2021/12/27 02:22:55;;;;;;;21.25;11.10;;;7.40;50.30;;;;;;5074170;28;20024;-81
2021/12/27 02:25:21;;;;;;;17.63;10.70;;;7.50;50.30;;;;;;5070968;28;20021;-81
2021/12/27 02:27:48;;;;;;;18.83;10.32;;;7.30;50.20;;;;;;5068603;28;20513;-81
2021/12/27 02:30:19;;;;;;;19.48;10.50;;;7.30;50.20;;;;;;5069593;28;20490;-81
2021/12/27 02:32:51;;;;;;;19.27;10.38;;;7.20;50.60;;;;;;5070849;28;20036;-81
2021/12/27 02:35:20;;;;;;;18.83;10.57;;;6.10;52.00;;;;;;5068171;28;20032;-81
2021/12/27 02:37:47;;;;;;;30.52;15.45;;;5.70;53.90;;;;;;5069226;28;20048;-81
2021/12/27 02:40:14;;;;;;;24.55;13.02;;;6.10;53.60;;;;;;5071516;28;20025;-82
2021/12/27 02:43:16;;;;;;;19.50;10.48;;;6.40;53.00;;;;;;5073383;28;20067;-82
2021/12/27 02:45:55;;;;;;;23.42;11.77;;;6.60;52.40;;;;;;5075362;28;20352;-83
2021/12/27 02:48:24;;;;;;;22.08;11.85;;;7.00;51.80;;;;;;5068422;28;20094;-82
2021/12/27 02:50:52;;;;;;;30.92;14.23;;;7.20;51.40;;;;;;5056512;28;20052;-82
2021/12/27 02:53:18;;;;;;;30.88;14.68;;;7.60;50.80;;;;;;5058477;28;20021;-81
2021/12/27 02:55:47;;;;;;;29.92;15.77;;;7.60;50.50;;;;;;5050876;28;20032;-82
2021/12/27 02:58:13;;;;;;;31.63;16.92;;;7.60;50.70;;;;;;5051430;28;20095;-82
2021/12/27 03:00:46;;;;;;;30.42;15.98;;;7.80;50.50;;;;;;5052222;28;20487;-81
2021/12/27 03:03:12;;;;;;;24.13;13.18;;;7.90;50.30;;;;;;5050153;28;20043;-81
2021/12/27 03:05:41;;;;;;;18.70;10.27;;;7.90;49.60;;;;;;5051539;28;20032;-81
2021/12/27 03:08:13;;;;;;;23.75;12.88;;;7.90;49.30;;;;;;5065128;28;20047;-82
2021/12/27 03:10:40;;;;;;;21.27;11.60;;;7.90;50.00;;;;;;5093421;28;20036;-96
2021/12/27 03:13:06;;;;;;;19.88;10.98;;;7.80;49.80;;;;;;5072119;28;20043;-82
2021/12/27 03:15:32;;;;;;;19.77;10.75;;;7.80;49.60;;;;;;5050161;28;20028;-87
2021/12/27 03:17:57;;;;;;;19.27;10.25;;;7.90;49.40;;;;;;5050997;28;20135;-82
2021/12/27 03:20:27;;;;;;;20.90;11.80;;;7.80;49.30;;;;;;5051211;28;20032;-81
2021/12/27 03:22:53;;;;;;;19.60;11.50;;;7.50;49.70;;;;;;5073189;28;20067;-82
2021/12/27 03:25:22;;;;;;;16.58;8.63;;;7.50;50.40;;;;;;5073822;28;20531;-82
2021/12/27 03:27:49;;;;;;;16.30;8.60;;;7.70;50.20;;;;;;5075437;28;20396;-82
2021/12/27 03:30:20;;;;;;;16.13;9.00;;;7.90;49.60;;;;;;5080652;28;20024;-82
2021/12/27 03:32:46;;;;;;;16.58;8.30;;;8.00;49.30;;;;;;5093955;28;20070;-82
2021/12/27 03:35:16;;;;;;;14.98;9.25;;;8.20;49.00;;;;;;5086810;28;20067;-82
2021/12/27 03:37:50;;;;;;;18.02;9.68;;;8.00;49.60;;;;;;5074287;28;20055;-83
2021/12/27 03:40:19;;;;;;;17.70;10.25;;;7.80;50.10;;;;;;5086942;28;20033;-82
2021/12/27 03:42:50;;;;;;;18.30;9.80;;;7.60;51.40;;;;;;5071409;28;20098;-82
2021/12/27 03:45:21;;;;;;;15.18;9.23;;;7.60;51.20;;;;;;5071910;28;20420;-83
2021/12/27 03:47:48;;;;;;;20.58;10.27;;;7.50;51.20;;;;;;5069928;28;20223;-82
2021/12/27 03:50:14;;;;;;;15.60;9.60;;;7.40;51.60;;;;;;5061050;28;20021;-81
2021/12/27 03:52:40;;;;;;;16.60;9.40;;;7.50;51.70;;;;;;5068232;28;20352;-82
2021/12/27 03:55:07;;;;;;;14.55;8.75;;;7.80;51.10;;;;;;5073479;28;20031;-82
2021/12/27 03:57:35;;;;;;;13.55;7.90;;;7.70;50.70;;;;;;5077018;28;20048;-82
2021/12/27 04:02:51;;;;;;;14.48;8.13;;;7.90;50.00;;;;;;5077622;28;20481;-82
2021/12/27 04:05:18;;;;;;;;;;;7.90;49.90;;;;;;5077447;28;20037;-83
2021/12/27 04:07:45;;;;;;;17.48;9.30;;;7.90;50.10;;;;;;5076172;28;19915;-82
2021/12/27 04:10:12;;;;;;;16.90;8.70;;;8.00;49.70;;;;;;5076069;28;20032;-82
2021/12/27 04:12:38;;;;;;;16.10;8.20;;;7.50;49.50;;;;;;5076447;28;20025;-83
2021/12/27 04:15:07;;;;;;;14.45;8.15;;;7.40;50.40;;;;;;5076538;28;20041;-83
2021/12/27 04:17:33;;;;;;;16.38;8.38;;;7.40;49.80;;;;;;5077837;28;20170;-82
2021/12/27 04:19:59;;;;;;;15.75;8.32;;;7.50;51.20;;;;;;5075581;28;20046;-83
2021/12/27 04:22:25;;;;;;;13.48;7.68;;;7.50;51.50;;;;;;5076903;28;20028;-82
2021/12/27 04:24:51;;;;;;;10.95;6.55;;;7.60;51.00;;;;;;5075162;28;20074;-81
2021/12/27 04:27:16;;;;;;;12.88;7.20;;;7.60;48.40;;;;;;5075279;28;20032;-82
2021/12/27 04:29:43;;;;;;;11.32;6.78;;;7.50;48.90;;;;;;5076114;28;20029;-82
2021/12/27 04:32:09;;;;;;;13.68;6.45;;;7.20;49.80;;;;;;5076946;28;20426;-81
2021/12/27 04:34:35;;;;;;;10.88;6.55;;;6.70;48.20;;;;;;5075237;28;20501;-82
2021/12/27 04:37:01;;;;;;;11.77;6.93;;;7.20;49.40;;;;;;5075251;28;20066;-83
2021/12/27 04:39:27;;;;;;;11.30;6.63;;;7.60;50.00;;;;;;5076456;28;20032;-83
2021/12/27 04:41:54;;;;;;;15.60;7.55;;;7.50;47.30;;;;;;5074657;28;20016;-82
2021/12/27 04:44:19;;;;;;;13.05;7.05;;;7.60;49.90;;;;;;5075452;28;20025;-82
2021/12/27 04:46:45;;;;;;;11.13;6.43;;;8.00;49.20;;;;;;5075415;28;20059;-82
2021/12/27 04:49:11;;;;;;;13.20;6.68;;;8.20;47.60;;;;;;5075274;28;20028;-82
2021/12/27 04:51:36;;;;;;;13.57;7.50;;;8.40;47.80;;;;;;5078009;28;20482;-82
2021/12/27 04:54:03;;;;;;;11.40;6.38;;;8.00;46.50;;;;;;5095448;28;20123;-82
2021/12/27 04:56:29;;;;;;;14.25;7.40;;;7.60;47.50;;;;;;5083962;28;20036;-81
2021/12/27 04:58:55;;;;;;;11.52;6.60;;;7.20;47.70;;;;;;5071345;28;20458;-81
2021/12/27 05:01:22;;;;;;;11.05;6.53;;;7.30;47.60;;;;;;5073576;28;20040;-81
2021/12/27 05:03:48;;;;;;;16.20;7.68;;;6.70;48.30;;;;;;5075933;28;20020;-82
2021/12/27 05:06:14;;;;;;;13.15;7.30;;;6.30;49.50;;;;;;5075776;28;20104;-81
2021/12/27 05:08:41;;;;;;;12.88;7.10;;;5.90;50.70;;;;;;5076002;28;20025;-82
2021/12/27 05:11:07;;;;;;;13.02;7.40;;;5.90;50.20;;;;;;5075001;28;20379;-82
2021/12/27 05:13:33;;;;;;;13.77;7.30;;;5.60;49.80;;;;;;5075216;28;20031;-81
2021/12/27 05:16:00;;;;;;;14.15;8.18;;;5.60;50.80;;;;;;5074222;28;20021;-81
2021/12/27 05:18:26;;;;;;;16.00;7.70;;;5.60;50.60;;;;;;5070302;28;20557;-81
2021/12/27 05:20:52;;;;;;;14.05;7.60;;;5.40;50.60;;;;;;5070731;28;20024;-82
2021/12/27 05:23:18;;;;;;;15.32;7.70;;;5.60;51.10;;;;;;5071214;28;20372;-81
2021/12/27 05:25:43;;;;;;;13.52;7.70;;;6.20;51.20;;;;;;5070186;28;20034;-82
2021/12/27 05:28:09;;;;;;;14.70;7.97;;;6.20;49.60;;;;;;5071981;28;20033;-83
2021/12/27 05:30:39;;;;;;;15.75;8.13;;;6.70;49.70;;;;;;5074653;28;20031;-83
2021/12/27 05:33:05;;;;;;;15.63;8.20;;;7.00;49.00;;;;;;5054267;28;20029;-82
2021/12/27 05:35:30;;;;;;;14.05;8.20;;;7.20;48.60;;;;;;5058429;28;20024;-82
2021/12/27 05:37:56;;;;;;;14.27;8.32;;;7.40;48.50;;;;;;5072995;28;20122;-81
2021/12/27 05:40:23;;;;;;;18.38;9.95;;;7.50;48.20;;;;;;5070424;28;20028;-81
2021/12/27 05:42:51;;;;;;;16.67;9.27;;;7.30;48.50;;;;;;5072405;28;20030;-82
2021/12/27 05:45:18;;;;;;;15.38;8.98;;;6.90;49.40;;;;;;5070614;28;20056;-82
2021/12/27 05:47:44;;;;;;;18.25;10.35;;;7.00;48.90;;;;;;5071469;28;20059;-82
2021/12/27 05:50:12;;;;;;;16.75;8.85;;;7.10;48.70;;;;;;5071544;28;20062;-83
2021/12/27 05:52:38;;;;;;;16.20;8.60;;;6.50;49.30;;;;;;5073664;28;20027;-81
2021/12/27 05:55:06;;;;;;;18.40;9.82;;;5.60;50.20;;;;;;5079961;28;20032;-83
2021/12/27 05:57:32;;;;;;;17.38;9.15;;;5.00;52.30;;;;;;5070925;28;20036;-81
2021/12/27 05:59:58;;;;;;;16.77;9.27;;;5.00;52.60;;;;;;5069192;28;20020;-81
2021/12/27 06:02:24;;;;;;;24.40;12.98;;;4.70;53.50;;;;;;5061218;28;20029;-81
2021/12/27 06:04:50;;;;;;;19.33;10.77;;;4.70;53.90;;;;;;5060609;28;20029;-85
2021/12/27 06:07:16;;;;;;;19.02;11.25;;;5.20;54.40;;;;;;5064822;28;20403;-81
2021/12/27 06:09:42;;;;;;;23.17;13.88;;;5.70;53.10;;;;;;5069465;28;20098;-81
2021/12/27 06:12:08;;;;;;;23.70;14.68;;;6.00;52.90;;;;;;5071035;28;20055;-83
2021/12/27 06:14:34;;;;;;;29.80;16.05;;;6.60;52.20;;;;;;5069788;28;20024;-82
2021/12/27 06:17:00;;;;;;;29.45;16.55;;;6.70;51.60;;;;;;5068735;28;20411;-82
2021/12/27 06:19:25;;;;;;;24.30;13.98;;;6.60;51.90;;;;;;5077337;28;20032;-84
2021/12/27 06:21:52;;;;;;;21.05;12.30;;;6.90;51.50;;;;;;5073275;28;20021;-84
2021/12/27 06:24:18;;;;;;;19.05;11.27;;;7.20;51.00;;;;;;5073264;28;20379;-84
2021/12/27 06:26:44;;;;;;;20.40;11.30;;;7.30;50.80;;;;;;5073348;28;20028;-83
2021/12/27 06:29:09;;;;;;;19.23;10.98;;;7.50;50.50;;;;;;5073319;28;20031;-84
2021/12/27 06:31:35;;;;;;;20.48;12.23;;;7.50;50.30;;;;;;5072646;28;20053;-83
2021/12/27 06:34:01;;;;;;;20.55;12.25;;;7.80;50.10;;;;;;5073191;28;20083;-84
2021/12/27 06:36:27;;;;;;;19.10;11.45;;;7.80;49.70;;;;;;5073006;28;20057;-83
2021/12/27 06:38:52;;;;;;;18.85;11.02;;;7.60;49.90;;;;;;5073490;28;20063;-83
2021/12/27 06:41:18;;;;;;;19.73;11.20;;;7.60;50.10;;;;;;5071632;28;20024;-82
2021/12/27 06:43:44;;;;;;;17.13;9.75;;;7.70;49.80;;;;;;5071269;28;20043;-81
2021/12/27 06:46:10;;;;;;;18.98;10.85;;;7.80;49.30;;;;;;5072326;28;20032;-83
2021/12/27 06:48:35;;;;;;;20.23;11.43;;;7.80;49.70;;;;;;5073610;28;20047;-83
2021/12/27 06:51:01;;;;;;;19.90;10.68;;;7.70;49.80;;;;;;5073929;28;20414;-83
2021/12/27 06:53:30;;;;;;;19.00;11.75;;;7.60;49.50;;;;;;5073939;28;20051;-83
2021/12/27 06:55:57;;;;;;;21.05;10.93;;;7.50;49.90;;;;;;5072621;28;20021;-82
2021/12/27 06:58:24;;;;;;;18.33;10.77;;;7.30;50.60;;;;;;5072966;28;20051;-83
2021/12/27 07:00:50;;;;;;;16.42;10.55;;;7.10;50.00;;;;;;5072685;28;20025;-84
2021/12/27 07:03:16;;;;;;;19.98;10.60;;;7.00;49.60;;;;;;5074743;28;20504;-84
2021/12/27 07:05:43;;;;;;;19.80;11.55;;;7.10;49.50;;;;;;5093585;28;20066;-84
2021/12/27 07:08:10;;;;;;;17.90;10.35;;;7.30;48.90;;;;;;4724113;28;10000868;-83
2021/12/27 07:11:28;;;;;;;28.52;14.23;;;7.40;48.90;;;;;;5072248;28;20044;-80
2021/12/27 07:13:53;;;;;;;33.95;16.75;;;7.30;49.00;;;;;;5083329;28;20558;-84
2021/12/27 07:16:20;;;;;;;38.25;16.92;;;7.40;49.70;;;;;;5064482;28;20398;-86
2021/12/27 07:18:46;;;;;;;36.17;16.75;;;7.40;49.40;;;;;;5075653;28;20032;-82
2021/12/27 07:21:12;;;;;;;28.88;14.13;;;7.30;49.60;;;;;;5071801;28;20427;-92
2021/12/27 07:23:37;;;;;;;29.50;15.02;;;7.40;50.00;;;;;;5071708;28;20386;-84
2021/12/27 07:26:03;;;;;;;46.25;26.30;;;7.60;49.50;;;;;;5071500;28;20020;-84
2021/12/27 07:28:29;;;;;;;28.85;15.32;;;7.90;48.90;;;;;;5072063;28;20028;-84
2021/12/27 07:30:55;;;;;;;21.63;11.57;;;8.00;48.20;;;;;;5073550;28;20379;-81
2021/12/27 07:33:20;;;;;;;22.05;12.32;;;8.10;47.30;;;;;;5071483;28;20094;-84
2021/12/27 07:35:47;;;;;;;36.42;17.33;;;8.30;47.40;;;;;;5071886;28;20043;-84
2021/12/27 07:38:14;;;;;;;31.50;16.67;;;8.10;48.90;;;;;;5067109;28;20052;-83
2021/12/27 07:40:40;;;;;;;33.75;17.95;;;8.10;49.20;;;;;;5051402;28;20033;-85
2021/12/27 07:43:06;;;;;;;23.55;13.73;;;8.20;48.40;;;;;;5051460;28;20426;-93
2021/12/27 07:45:32;;;;;;;26.02;13.85;;;8.00;47.80;;;;;;5058718;28;20025;-94
2021/12/27 07:47:58;;;;;;;27.30;14.35;;;8.00;48.80;;;;;;5071881;28;20027;-87
2021/12/27 07:50:24;;;;;;;20.73;11.52;;;8.10;49.50;;;;;;5072533;28;20020;-89
2021/12/27 07:52:55;;;;;;;24.67;13.02;;;7.70;48.60;;;;;;5072110;28;20020;-86
2021/12/27 07:55:20;;;;;;;19.85;11.80;;;7.70;48.60;;;;;;5071278;28;20031;-84
2021/12/27 07:57:46;;;;;;;24.50;13.40;;;8.10;48.10;;;;;;5071144;28;20032;-85
2021/12/27 08:00:13;;;;;;;27.10;13.70;;;8.50;48.20;;;;;;5072090;28;20051;-86
2021/12/27 08:02:39;;;;;;;24.80;14.45;;;8.50;46.00;;;;;;5072367;28;20056;-87
2021/12/27 08:05:06;;;;;;;31.00;14.82;;;8.60;47.00;;;;;;5073003;28;20158;-85
2021/12/27 08:07:32;;;;;;;29.40;15.25;;;8.90;46.70;;;;;;5072236;28;20387;-86
2021/12/27 08:09:57;;;;;;;24.73;13.02;;;9.10;46.10;;;;;;5071634;28;20031;-86
2021/12/27 08:12:23;;;;;;;23.27;13.18;;;9.10;45.90;;;;;;5072669;28;20036;-87
2021/12/27 08:14:49;;;;;;;25.20;13.43;;;9.10;45.80;;;;;;5073988;28;20361;-86
2021/12/27 08:17:14;;;;;;;23.27;13.05;;;9.30;45.80;;;;;;5073265;28;20047;-85
2021/12/27 08:19:40;;;;;;;21.20;12.13;;;9.40;45.90;;;;;;5073978;28;20170;-83
2021/12/27 08:22:06;;;;;;;21.38;11.35;;;9.60;45.20;;;;;;5077412;28;20028;-89
2021/12/27 08:24:32;;;;;;;20.83;12.70;;;9.70;44.80;;;;;;5078290;28;20035;-86
2021/12/27 08:27:02;;;;;;;20.67;12.30;;;9.30;44.70;;;;;;5073200;28;20065;-84
2021/12/27 08:29:28;;;;;;;18.63;10.20;;;9.30;45.50;;;;;;5074822;28;20074;-90
2021/12/27 08:31:54;;;;;;;20.70;11.70;;;8.50;44.90;;;;;;5071732;28;20036;-86
2021/12/27 08:34:19;;;;;;;19.30;10.75;;;8.30;46.70;;;;;;5070962;28;20025;-83
2021/12/27 08:36:45;;;;;;;18.75;11.05;;;8.20;46.10;;;;;;5070095;28;20048;-82
2021/12/27 08:39:11;;;;;;;19.42;10.80;;;8.30;46.10;;;;;;5071239;28;20031;-85
2021/12/27 08:41:37;;;;;;;19.60;11.23;;;8.30;45.80;;;;;;5075197;28;20032;-83
2021/12/27 08:44:05;;;;;;;21.08;11.23;;;8.60;45.90;;;;;;5092565;28;20115;-84
2021/12/27 08:46:32;;;;;;;16.58;9.68;;;9.10;45.30;;;;;;5070634;28;20024;-84
2021/12/27 08:48:58;;;;;;;17.33;8.98;;;8.80;44.00;;;;;;5074274;28;20032;-83
2021/12/27 08:51:25;;;;;;;16.30;8.85;;;7.80;45.10;;;;;;5074441;28;20028;-83
2021/12/27 08:53:51;;;;;;;16.63;10.02;;;8.30;45.50;;;;;;5074287;28;20056;-84
2021/12/27 08:56:18;;;;;;;18.10;9.63;;;9.10;44.80;;;;;;5074315;28;20045;-82
2021/12/27 08:58:44;;;;;;;17.45;9.82;;;9.10;43.40;;;;;;5073617;28;20032;-84
2021/12/27 09:01:10;;;;;;;13.38;8.00;;;9.50;43.30;;;;;;5074295;28;20025;-83
2021/12/27 09:03:36;;;;;;;15.82;8.98;;;9.80;42.80;;;;;;5068370;28;20503;-82
2021/12/27 09:06:03;;;;;;;15.57;8.00;;;10.00;42.60;;;;;;5064586;28;20028;-81
2021/12/27 09:08:30;;;;;;;16.77;9.07;;;10.20;42.00;;;;;;5073872;28;20028;-83
2021/12/27 09:10:58;;;;;;;12.88;7.75;;;10.50;42.10;;;;;;5074322;28;20024;-83
2021/12/27 09:13:32;;;;;;;14.35;8.20;;;10.30;40.80;;;;;;5074396;28;20383;-84
2021/12/27 09:16:02;;;;;;;16.27;8.20;;;10.00;41.20;;;;;;5070976;28;20021;-84
2021/12/27 09:18:32;;;;;;;20.50;11.35;;;10.10;41.20;;;;;;5070805;28;20373;-82
2021/12/27 09:20:59;;;;;;;14.85;9.30;;;10.20;41.50;;;;;;5053797;28;20456;-82
2021/12/27 09:23:25;;;;;;;12.80;7.45;;;10.30;41.20;;;;;;5089853;28;20024;-82
2021/12/27 09:25:50;;;;;;;13.32;7.30;;;10.40;40.70;;;;;;5077230;28;20360;-90
2021/12/27 09:28:16;;;;;;;13.20;7.93;;;10.10;41.20;;;;;;5073986;28;20032;-85
2021/12/27 09:30:42;;;;;;;14.45;8.43;;;10.40;41.00;;;;;;5074684;28;20024;-81
2021/12/27 09:33:08;;;;;;;16.63;8.85;;;10.40;40.60;;;;;;5073768;28;20034;-82
2021/12/27 09:35:35;;;;;;;20.08;11.50;;;10.60;40.60;;;;;;5073286;28;20024;-82
2021/12/27 09:38:00;;;;;;;16.65;9.25;;;10.90;41.00;;;;;;5073102;28;20063;-84
2021/12/27 09:40:27;;;;;;;13.82;7.40;;;11.00;40.10;;;;;;5073425;28;20020;-82
2021/12/27 09:42:53;;;;;;;13.90;8.05;;;10.80;39.70;;;;;;5073509;28;20024;-83
2021/12/27 09:45:20;;;;;;;12.75;7.30;;;11.20;39.90;;;;;;5059984;28;20090;-84
2021/12/27 09:47:47;;;;;;;19.48;10.35;;;11.20;39.50;;;;;;5053600;28;20088;-83
2021/12/27 09:50:18;;;;;;;18.63;10.52;;;11.10;39.30;;;;;;5053315;28;20531;-82
2021/12/27 09:52:44;;;;;;;16.90;9.00;;;10.80;40.30;;;;;;5053712;28;20021;-86
2021/12/27 09:55:11;;;;;;;13.65;8.00;;;10.90;40.30;;;;;;5054637;28;20028;-83
2021/12/27 09:57:37;;;;;;;14.60;8.38;;;10.90;39.70;;;;;;5072754;28;20060;-85
2021/12/27 10:00:07;;;;;;;16.02;9.32;;;10.60;39.30;;;;;;5073056;28;20020;-84
2021/12/27 10:02:34;;;;;;;;;;;10.50;39.90;;;;;;5073525;28;20858;-84
2021/12/27 10:05:00;;;;;;;14.45;8.30;;;10.80;40.20;;;;;;5073164;28;20362;-83
2021/12/27 10:07:27;;;;;;;17.77;10.45;;;10.70;39.70;;;;;;5073449;28;20055;-81
2021/12/27 10:09:59;;;;;;;19.08;10.15;;;9.80;39.20;;;;;;5072979;28;20115;-83
2021/12/27 10:12:27;;;;;;;20.73;10.55;;;9.00;40.90;;;;;;5073049;28;20464;-82
2021/12/27 10:15:01;;;;;;;22.65;10.90;;;8.90;41.60;;;;;;5072723;28;20048;-83
2021/12/27 10:17:31;;;;;;;21.15;11.00;;;9.70;41.50;;;;;;5073374;28;20376;-81
2021/12/27 10:20:07;;;;;;;18.37;9.83;;;10.30;41.10;;;;;;5053049;28;20059;-86
2021/12/27 10:22:41;;;;;;;19.42;10.70;;;10.50;40.30;;;;;;5071533;28;20422;-83
2021/12/27 10:25:18;;;;;;;20.27;11.85;;;11.20;39.80;;;;;;5079923;28;20066;-84
2021/12/27 10:27:45;;;;;;;22.40;11.88;;;11.70;39.80;;;;;;5089536;28;20028;-82
2021/12/27 10:30:20;;;;;;;15.68;9.20;;;11.90;38.80;;;;;;5072682;28;20047;-83
2021/12/27 10:33:15;;;;;;;18.25;11.18;;;11.90;38.50;;;;;;5070050;28;20086;-83
2021/12/27 10:35:46;;;;;;;16.13;8.20;;;11.50;38.60;;;;;;5091729;28;20127;-83
2021/12/27 10:38:22;;;;;;;93.05;57.50;;;11.80;38.20;;;;;;5064356;28;20080;-85
2021/12/27 10:41:13;;;;;;;20.10;13.18;;;12.00;38.50;;;;;;5069228;28;20033;-83
2021/12/27 10:47:25;;;;;;;13.55;8.38;;;12.60;37.70;;;;;;4765239;22;10001879;-84
2021/12/27 10:49:52;;;;;;;14.63;7.93;;;12.70;37.50;;;;;;5060299;28;20030;-84
2021/12/27 10:52:18;;;;;;;13.60;7.75;;;12.80;37.50;;;;;;5060040;28;20491;-84
2021/12/27 10:55:31;;;;;;;14.60;7.25;;;13.00;37.90;;;;;;4992953;28;20022;-85
2021/12/27 10:58:14;;;;;;;13.07;7.47;;;13.00;36.40;;;;;;4992064;28;20044;-84
2021/12/27 11:00:41;;;;;;;12.60;6.60;;;12.10;36.20;;;;;;4992358;28;20628;-83
2021/12/27 11:03:07;;;;;;;12.93;7.43;;;11.80;36.40;;;;;;5092312;28;20095;-85
2021/12/27 11:05:35;;;;;;;13.43;7.30;;;12.20;36.40;;;;;;5058788;28;20113;-84
2021/12/27 11:08:05;;;;;;;11.55;6.72;;;12.50;36.80;;;;;;5059020;28;20033;-84
2021/12/27 11:10:35;;;;;;;12.57;6.80;;;12.60;36.60;;;;;;4992173;28;20025;-85
2021/12/27 11:13:01;;;;;;;12.07;6.75;;;11.80;35.70;;;;;;5059059;28;20478;-84
2021/12/27 11:15:29;;;;;;;12.77;8.27;;;11.40;36.60;;;;;;5058664;28;20041;-84
2021/12/27 11:17:56;;;;;;;21.13;15.73;;;11.30;36.30;;;;;;5058764;28;20088;-84
2021/12/27 11:20:23;;;;;;;16.35;9.55;;;10.90;37.10;;;;;;5059592;28;20049;-84
2021/12/27 11:22:53;;;;;;;11.18;5.40;;;10.70;37.70;;;;;;5058805;28;20389;-88
2021/12/27 11:25:22;;;;;;;10.65;6.03;;;10.70;36.50;;;;;;5058640;28;20026;-84
2021/12/27 11:27:48;;;;;;;10.93;6.63;;;10.10;37.10;;;;;;5058456;28;20045;-84
2021/12/27 11:30:16;;;;;;;10.50;5.70;;;10.20;36.40;;;;;;4991790;28;20018;-85
2021/12/27 11:33:02;;;;;;;11.05;5.88;;;10.00;37.20;;;;;;4992549;28;20031;-85
2021/12/27 11:36:01;;;;;;;10.23;5.90;;;10.60;38.00;;;;;;4991895;28;20420;-84
2021/12/27 11:38:38;;;;;;;11.90;6.45;;;10.80;36.20;;;;;;4991554;28;20045;-84
2021/12/27 11:41:26;;;;;;;10.68;5.88;;;10.90;36.90;;;;;;5063763;28;20408;-84
2021/12/27 11:44:06;;;;;;;12.73;7.10;;;11.10;37.40;;;;;;5075936;28;20020;-84
2021/12/27 11:46:47;;;;;;;12.50;7.22;;;10.90;37.70;;;;;;5075619;28;20047;-84
2021/12/27 11:49:13;;;;;;;14.00;6.82;;;10.80;37.60;;;;;;5075980;28;20520;-85
2021/12/27 11:51:40;;;;;;;12.15;6.78;;;11.10;36.80;;;;;;5075852;28;20128;-84
2021/12/27 11:54:27;;;;;;;15.38;7.30;;;11.30;37.30;;;;;;5093607;28;20016;-83
2021/12/27 11:56:54;;;;;;;13.70;7.13;;;11.40;38.00;;;;;;5075988;28;20063;-84
2021/12/27 11:59:25;;;;;;;13.55;7.85;;;11.30;38.10;;;;;;5075796;28;20048;-85
2021/12/27 12:02:13;;;;;;;15.65;7.72;;;11.40;39.40;;;;;;5075677;28;20122;-84
2021/12/27 12:04:44;;;;;;;14.23;7.95;;;11.20;38.70;;;;;;5076006;28;20039;-84
2021/12/27 12:07:31;;;;;;;12.90;8.15;;;11.20;38.20;;;;;;5075807;28;20020;-82
2021/12/27 12:09:57;;;;;;;12.38;7.28;;;11.00;38.20;;;;;;5061547;28;20039;-84
2021/12/27 12:12:23;;;;;;;13.05;6.65;;;10.30;38.40;;;;;;5093663;28;20493;-84
2021/12/27 12:14:57;;;;;;;15.05;7.93;;;10.30;38.30;;;;;;5078341;28;20024;-85
2021/12/27 12:17:44;;;;;;;17.55;8.95;;;10.60;38.40;;;;;;5079370;28;20028;-84
2021/12/27 12:20:48;;;;;;;15.27;7.82;;;10.40;38.30;;;;;;5079388;28;20032;-84
2021/12/27 12:23:14;;;;;;;19.95;9.43;;;10.10;37.90;;;;;;4996143;28;20034;-83
2021/12/27 12:25:40;;;;;;;10.65;5.07;;;10.20;38.60;;;;;;4979394;28;20073;-83
2021/12/27 12:28:11;;;;;;;9.75;4.68;;;9.70;36.80;;;;;;4995433;28;20038;-85
2021/12/27 12:30:49;;;;;;;9.68;4.78;;;9.00;37.30;;;;;;4979095;28;20219;-83
2021/12/27 12:33:19;;;;;;;9.50;5.10;;;8.60;38.10;;;;;;4995742;28;20037;-84
2021/12/27 12:36:00;;;;;;;12.00;4.93;;;8.50;37.50;;;;;;4979158;28;20038;-83
2021/12/27 12:38:35;;;;;;;9.45;4.97;;;9.00;37.80;;;;;;4979345;28;20043;-83
2021/12/27 12:41:16;;;;;;;10.32;5.30;;;9.70;37.30;;;;;;4995593;28;20482;-84
2021/12/27 12:43:56;;;;;;;11.80;4.95;;;9.90;36.80;;;;;;4979497;28;20041;-83
2021/12/27 12:46:41;;;;;;;10.20;4.68;;;10.10;36.90;;;;;;4799514;28;10001302;-83
2021/12/27 12:49:11;;;;;;;12.48;6.32;;;9.80;36.60;;;;;;4978321;28;20242;-84
2021/12/27 12:51:52;;;;;;;11.40;6.35;;;9.50;37.60;;;;;;4979057;28;20119;-84
2021/12/27 12:54:23;;;;;;;13.77;6.75;;;9.40;37.70;;;;;;5029590;28;20120;-83
2021/12/27 12:57:05;;;;;;;9.57;4.63;;;9.30;37.90;;;;;;5076522;28;20032;-83